»·PEaware :: SWA388 KOAK-KPDX

SWA388 :: KOAK-KPDX

FLIGHT INFORMATION

Flight Status: Arrived
Operator:
Southwest Airlines
More flights by this operator :: More flights under this callsign
Pilot: Dave M. (4986)
Aircraft: BOEING 737-800
(B738)
More flights by this aircraft type
Origin: KOAK Metro Oakland Intl
United States
Destination: KPDX Portland Intl
United States
More flights between these airports :: More routes between these airports
Route: HUSSH2 GRTFL MACHU TMBRS2
File this flight plan on PilotEdge
Remarks: RMK / SIMBRIEF
Altitude:
(Current/Filed)
38,000ft
Speed:
(Current/Filed)
451kts
Departed: 10-Jul-20 09:53 PM
Arrived: 10-Jul-20 11:15 PM
Distance/Time
Traveled:
472nm/1:22
Distance/Time
To Go:
Arrived

Flight Plot

Page will automatically refresh every two minutes.


Map Options




Map Legend


Flown Route
Filed Route
Departure Airport
Arrival Airport
Navaid (VOR, NDB)
Fix

Horizontal Profiles

Position Reports

Time Latitude Longitude Heading Altitude Ground
Speed
10-Jul-20 21:24 37.709447 -122.213057 121 11ft 0kts
10-Jul-20 21:25 37.709447 -122.213057 121 11ft 0kts
10-Jul-20 21:26 37.709447 -122.213057 121 11ft 0kts
10-Jul-20 21:27 37.709447 -122.213057 121 11ft 0kts
10-Jul-20 21:28 37.709447 -122.213057 121 11ft 0kts
10-Jul-20 21:29 37.709447 -122.213057 121 11ft 0kts
10-Jul-20 21:30 37.709447 -122.213057 121 11ft 0kts
10-Jul-20 21:31 37.709447 -122.213057 121 11ft 0kts
10-Jul-20 21:32 37.709447 -122.213057 121 11ft 0kts
10-Jul-20 21:33 37.709447 -122.213057 121 11ft 0kts
10-Jul-20 21:34 37.709447 -122.213057 121 11ft 0kts
10-Jul-20 21:35 37.709447 -122.213057 121 11ft 0kts
10-Jul-20 21:36 37.709447 -122.213057 121 11ft 0kts
10-Jul-20 21:37 37.709447 -122.213057 121 11ft 0kts
10-Jul-20 21:38 37.709447 -122.213057 121 11ft 0kts
10-Jul-20 21:39 37.709658 -122.213502 121 11ft 2kts
10-Jul-20 21:40 37.710068 -122.213839 184 11ft 1kts
10-Jul-20 21:41 37.710101 -122.213836 182 11ft 0kts
10-Jul-20 21:42 37.710101 -122.213836 182 11ft 0kts
10-Jul-20 21:43 37.710101 -122.213836 182 11ft 0kts
10-Jul-20 21:44 37.709402 -122.214321 219 11ft 2kts
10-Jul-20 21:45 37.709393 -122.214330 219 11ft 0kts
10-Jul-20 21:46 37.708717 -122.215450 235 11ft 9kts
10-Jul-20 21:47 37.706647 -122.217768 180 11ft 9kts
10-Jul-20 21:48 37.704536 -122.215059 128 11ft 15kts
10-Jul-20 21:49 37.702943 -122.213624 160 11ft 0kts
10-Jul-20 21:50 37.702744 -122.213555 170 11ft 9kts
10-Jul-20 21:51 37.702399 -122.215621 308 11ft 34kts
10-Jul-20 21:52 37.725967 -122.250863 299 1251ft 167kts
10-Jul-20 21:53 37.743264 -122.313108 286 3715ft 233kts
10-Jul-20 21:54 37.796506 -122.366619 340 7241ft 285kts
10-Jul-20 21:55 37.874236 -122.389862 0 10390ft 307kts
10-Jul-20 21:56 37.965907 -122.375839 15 12980ft 348kts
10-Jul-20 21:57 38.060685 -122.340054 16 15900ft 364kts
10-Jul-20 21:58 38.159583 -122.303341 15 17860ft 383kts
10-Jul-20 21:59 38.262366 -122.265174 15 19848ft 394kts
10-Jul-20 22:00 38.370750 -122.234554 357 21748ft 406kts
10-Jul-20 22:01 38.484615 -122.245041 353 23406ft 418kts
10-Jul-20 22:02 38.588369 -122.255874 352 24621ft 425kts
10-Jul-20 22:03 38.707186 -122.268316 352 25924ft 432kts
10-Jul-20 22:04 38.828097 -122.281024 352 27356ft 442kts
10-Jul-20 22:05 38.951361 -122.294017 351 28433ft 449kts
10-Jul-20 22:06 39.056458 -122.305122 349 29178ft 455kts
10-Jul-20 22:07 39.182717 -122.318509 349 30231ft 462kts
10-Jul-20 22:08 39.311615 -122.332213 349 30779ft 467kts
10-Jul-20 22:09 39.441358 -122.346019 349 31802ft 468kts
10-Jul-20 22:10 39.570641 -122.359828 348 33496ft 467kts
10-Jul-20 22:11 39.699172 -122.373593 348 35391ft 463kts
10-Jul-20 22:12 39.826491 -122.387299 348 37282ft 460kts
10-Jul-20 22:13 39.955145 -122.401332 348 37973ft 476kts
10-Jul-20 22:14 40.086141 -122.415546 348 37974ft 473kts
10-Jul-20 22:15 40.217312 -122.429850 348 37965ft 473kts
10-Jul-20 22:16 40.348368 -122.444199 348 37966ft 473kts
10-Jul-20 22:17 40.479209 -122.458584 348 37967ft 473kts
10-Jul-20 22:18 40.610339 -122.473062 348 37968ft 474kts
10-Jul-20 22:19 40.741269 -122.487572 348 37969ft 474kts
10-Jul-20 22:20 40.872223 -122.502143 348 37971ft 474kts
10-Jul-20 22:21 41.003273 -122.516779 348 37984ft 473kts
10-Jul-20 22:22 41.132385 -122.531242 346 38047ft 472kts
10-Jul-20 22:23 41.262964 -122.545942 346 38114ft 473kts
10-Jul-20 22:24 41.393473 -122.560682 346 38129ft 471kts
10-Jul-20 22:25 41.523358 -122.575419 346 38129ft 472kts
10-Jul-20 22:26 41.655103 -122.584498 349 38131ft 474kts
10-Jul-20 22:27 41.786759 -122.592851 349 38132ft 475kts
10-Jul-20 22:28 41.918131 -122.601363 349 38133ft 474kts
10-Jul-20 22:29 42.049521 -122.609970 349 38135ft 475kts
10-Jul-20 22:30 42.181500 -122.618652 349 38109ft 473kts
10-Jul-20 22:31 42.312805 -122.627401 349 38091ft 474kts
10-Jul-20 22:32 42.444646 -122.636214 349 38091ft 474kts
10-Jul-20 22:33 42.576446 -122.645077 349 38093ft 475kts
10-Jul-20 22:34 42.708016 -122.653908 348 38107ft 473kts
10-Jul-20 22:36 42.839601 -122.662738 348 38107ft 474kts
10-Jul-20 22:37 42.970294 -122.671512 349 38109ft 464kts
10-Jul-20 22:38 43.097582 -122.680148 350 38120ft 458kts
10-Jul-20 22:39 43.224901 -122.688845 349 38140ft 458kts
10-Jul-20 22:40 43.351737 -122.697546 350 38138ft 459kts
10-Jul-20 22:41 43.478770 -122.706303 349 38138ft 458kts
10-Jul-20 22:42 43.606028 -122.715064 349 38148ft 458kts
10-Jul-20 22:43 43.731821 -122.723752 349 38158ft 453kts
10-Jul-20 22:44 43.857048 -122.732451 349 38139ft 453kts
10-Jul-20 22:45 43.984379 -122.741347 350 35117ft 466kts
10-Jul-20 22:46 44.110106 -122.750003 350 31701ft 451kts
10-Jul-20 22:47 44.238390 -122.744995 359 28209ft 449kts
10-Jul-20 22:48 44.356713 -122.732993 359 25639ft 423kts
10-Jul-20 22:49 44.473328 -122.721349 0 23030ft 404kts
10-Jul-20 22:50 44.583752 -122.710286 1 20524ft 389kts
10-Jul-20 22:51 44.686844 -122.699846 1 18395ft 380kts
10-Jul-20 22:51 44.775844 -122.690882 2 16511ft 374kts
10-Jul-20 22:53 44.891940 -122.679112 2 14382ft 341kts
10-Jul-20 22:54 44.982637 -122.669904 2 13249ft 316kts
10-Jul-20 22:55 45.070001 -122.661019 1 11669ft 312kts
10-Jul-20 22:56 45.155051 -122.652329 1 10382ft 297kts
10-Jul-20 22:56 45.221939 -122.645477 1 9421ft 284kts
10-Jul-20 22:58 45.305592 -122.672444 335 8831ft 277kts
10-Jul-20 22:58 45.364521 -122.705020 336 7815ft 269kts
10-Jul-20 22:59 45.433225 -122.742929 336 6591ft 265kts
10-Jul-20 23:01 45.511535 -122.786155 336 5260ft 241kts
10-Jul-20 23:01 45.560198 -122.813042 336 4991ft 219kts
10-Jul-20 23:02 45.600869 -122.872486 297 4991ft 215kts
10-Jul-20 23:03 45.631652 -122.946246 301 4799ft 213kts
10-Jul-20 23:04 45.660304 -123.011632 301 4006ft 180kts
10-Jul-20 23:05 45.699423 -123.051896 347 3998ft 184kts
10-Jul-20 23:06 45.736318 -123.011035 88 3999ft 199kts
10-Jul-20 23:07 45.717293 -122.939222 116 3999ft 192kts
10-Jul-20 23:08 45.692088 -122.871907 118 3941ft 190kts
10-Jul-20 23:09 45.667404 -122.807825 118 3011ft 170kts
10-Jul-20 23:10 45.645176 -122.750329 118 2097ft 163kts
10-Jul-20 23:11 45.624384 -122.696693 118 1238ft 150kts
10-Jul-20 23:12 45.604542 -122.645435 117 463ft 146kts
10-Jul-20 23:13 45.587886 -122.602365 101 36ft 41kts
10-Jul-20 23:14 45.589003 -122.598590 18 36ft 3kts
10-Jul-20 23:15 45.589207 -122.598486 19 37ft 0kts

Navigation Log

Ident Type
Flight plan parsing failed, navigation log unavailable